sensor_id;sensor_type;location;lat;lon;timestamp;P1;durP1;ratioP1;P2;durP2;ratioP2
48791;SDS011;34587;48.816;9.420;2023-12-28T00:00:40;9.90;;;5.35;;
48791;SDS011;34587;48.816;9.420;2023-12-28T00:03:05;17.85;;;4.78;;
48791;SDS011;34587;48.816;9.420;2023-12-28T00:05:30;16.33;;;5.82;;
48791;SDS011;34587;48.816;9.420;2023-12-28T00:07:56;13.93;;;5.32;;
48791;SDS011;34587;48.816;9.420;2023-12-28T00:10:26;10.80;;;4.90;;
48791;SDS011;34587;48.816;9.420;2023-12-28T00:12:52;14.38;;;6.10;;
48791;SDS011;34587;48.816;9.420;2023-12-28T00:15:18;10.70;;;5.15;;
48791;SDS011;34587;48.816;9.420;2023-12-28T00:17:43;13.60;;;5.57;;
48791;SDS011;34587;48.816;9.420;2023-12-28T00:20:09;10.00;;;5.13;;
48791;SDS011;34587;48.816;9.420;2023-12-28T00:22:34;6.40;;;4.63;;
48791;SDS011;34587;48.816;9.420;2023-12-28T00:25:02;9.90;;;4.90;;
48791;SDS011;34587;48.816;9.420;2023-12-28T00:27:28;10.10;;;4.47;;
48791;SDS011;34587;48.816;9.420;2023-12-28T00:29:53;6.68;;;3.63;;
48791;SDS011;34587;48.816;9.420;2023-12-28T00:32:19;10.65;;;4.13;;
48791;SDS011;34587;48.816;9.420;2023-12-28T00:34:44;8.80;;;4.65;;
48791;SDS011;34587;48.816;9.420;2023-12-28T00:37:09;8.20;;;4.28;;
48791;SDS011;34587;48.816;9.420;2023-12-28T00:39:34;9.13;;;4.63;;
48791;SDS011;34587;48.816;9.420;2023-12-28T00:42:00;12.88;;;3.55;;
48791;SDS011;34587;48.816;9.420;2023-12-28T00:44:25;18.13;;;5.38;;
48791;SDS011;34587;48.816;9.420;2023-12-28T00:46:51;8.38;;;4.07;;
48791;SDS011;34587;48.816;9.420;2023-12-28T00:49:16;8.95;;;4.30;;
48791;SDS011;34587;48.816;9.420;2023-12-28T00:51:41;8.10;;;3.88;;
48791;SDS011;34587;48.816;9.420;2023-12-28T00:54:06;8.52;;;4.40;;
48791;SDS011;34587;48.816;9.420;2023-12-28T00:56:32;10.18;;;4.65;;
48791;SDS011;34587;48.816;9.420;2023-12-28T00:58:57;6.38;;;4.03;;
48791;SDS011;34587;48.816;9.420;2023-12-28T05:17:37;4.22;;;2.35;;
48791;SDS011;34587;48.816;9.420;2023-12-28T05:20:02;2.40;;;2.03;;
48791;SDS011;34587;48.816;9.420;2023-12-28T05:22:28;1.75;;;1.65;;
48791;SDS011;34587;48.816;9.420;2023-12-28T05:24:53;4.32;;;2.40;;
48791;SDS011;34587;48.816;9.420;2023-12-28T05:27:19;4.60;;;2.53;;
48791;SDS011;34587;48.816;9.420;2023-12-28T05:29:44;3.53;;;2.42;;
48791;SDS011;34587;48.816;9.420;2023-12-28T05:32:09;3.95;;;2.13;;
48791;SDS011;34587;48.816;9.420;2023-12-28T05:34:35;3.35;;;1.88;;
48791;SDS011;34587;48.816;9.420;2023-12-28T05:37:00;2.28;;;1.75;;
48791;SDS011;34587;48.816;9.420;2023-12-28T05:39:25;3.72;;;2.08;;
48791;SDS011;34587;48.816;9.420;2023-12-28T05:41:50;3.53;;;1.58;;
48791;SDS011;34587;48.816;9.420;2023-12-28T05:44:16;2.60;;;1.63;;
48791;SDS011;34587;48.816;9.420;2023-12-28T05:46:42;2.40;;;1.80;;
48791;SDS011;34587;48.816;9.420;2023-12-28T05:49:07;2.95;;;1.50;;
48791;SDS011;34587;48.816;9.420;2023-12-28T05:51:39;4.25;;;1.50;;
48791;SDS011;34587;48.816;9.420;2023-12-28T05:54:05;3.13;;;1.50;;
48791;SDS011;34587;48.816;9.420;2023-12-28T05:56:30;1.23;;;1.10;;
48791;SDS011;34587;48.816;9.420;2023-12-28T05:58:55;3.78;;;1.58;;
48791;SDS011;34587;48.816;9.420;2023-12-28T06:01:21;1.50;;;1.40;;
48791;SDS011;34587;48.816;9.420;2023-12-28T06:03:46;2.05;;;1.50;;
48791;SDS011;34587;48.816;9.420;2023-12-28T06:06:14;1.80;;;1.45;;
48791;SDS011;34587;48.816;9.420;2023-12-28T06:08:39;4.35;;;1.58;;
48791;SDS011;34587;48.816;9.420;2023-12-28T06:11:05;2.33;;;1.80;;
48791;SDS011;34587;48.816;9.420;2023-12-28T06:13:30;3.42;;;1.30;;
48791;SDS011;34587;48.816;9.420;2023-12-28T06:15:55;1.80;;;1.45;;
48791;SDS011;34587;48.816;9.420;2023-12-28T06:18:20;3.13;;;1.98;;
48791;SDS011;34587;48.816;9.420;2023-12-28T06:20:46;5.43;;;1.73;;
48791;SDS011;34587;48.816;9.420;2023-12-28T06:23:12;4.35;;;2.25;;
48791;SDS011;34587;48.816;9.420;2023-12-28T06:25:37;2.40;;;2.05;;
48791;SDS011;34587;48.816;9.420;2023-12-28T06:28:02;1.90;;;1.65;;
48791;SDS011;34587;48.816;9.420;2023-12-28T06:30:28;3.58;;;1.63;;
48791;SDS011;34587;48.816;9.420;2023-12-28T06:32:54;3.47;;;1.50;;
48791;SDS011;34587;48.816;9.420;2023-12-28T06:35:19;4.35;;;1.50;;
48791;SDS011;34587;48.816;9.420;2023-12-28T06:37:45;2.00;;;1.55;;
48791;SDS011;34587;48.816;9.420;2023-12-28T06:40:10;1.73;;;1.63;;
48791;SDS011;34587;48.816;9.420;2023-12-28T06:42:36;2.15;;;1.80;;
48791;SDS011;34587;48.816;9.420;2023-12-28T06:45:01;2.83;;;1.85;;
48791;SDS011;34587;48.816;9.420;2023-12-28T06:47:27;1.65;;;1.55;;
48791;SDS011;34587;48.816;9.420;2023-12-28T06:49:52;6.25;;;2.22;;
48791;SDS011;34587;48.816;9.420;2023-12-28T06:52:17;3.30;;;1.90;;
48791;SDS011;34587;48.816;9.420;2023-12-28T06:54:42;2.30;;;1.80;;
48791;SDS011;34587;48.816;9.420;2023-12-28T06:57:08;4.88;;;2.13;;
48791;SDS011;34587;48.816;9.420;2023-12-28T06:59:33;6.53;;;3.60;;
48791;SDS011;34587;48.816;9.420;2023-12-28T07:01:58;10.00;;;3.25;;
48791;SDS011;34587;48.816;9.420;2023-12-28T07:04:23;9.18;;;3.20;;
48791;SDS011;34587;48.816;9.420;2023-12-28T07:06:50;5.03;;;2.42;;
48791;SDS011;34587;48.816;9.420;2023-12-28T07:09:15;3.92;;;2.40;;
48791;SDS011;34587;48.816;9.420;2023-12-28T07:11:41;10.48;;;6.03;;
48791;SDS011;34587;48.816;9.420;2023-12-28T07:14:06;5.80;;;3.83;;
48791;SDS011;34587;48.816;9.420;2023-12-28T07:16:31;6.50;;;2.83;;
48791;SDS011;34587;48.816;9.420;2023-12-28T07:18:57;2.45;;;1.95;;
48791;SDS011;34587;48.816;9.420;2023-12-28T07:21:22;12.23;;;4.75;;
48791;SDS011;34587;48.816;9.420;2023-12-28T07:23:47;5.15;;;2.83;;
48791;SDS011;34587;48.816;9.420;2023-12-28T07:26:14;5.95;;;2.67;;
48791;SDS011;34587;48.816;9.420;2023-12-28T07:28:39;6.22;;;2.75;;
48791;SDS011;34587;48.816;9.420;2023-12-28T07:31:07;8.88;;;2.90;;
48791;SDS011;34587;48.816;9.420;2023-12-28T07:33:32;5.75;;;3.47;;
48791;SDS011;34587;48.816;9.420;2023-12-28T07:35:58;4.95;;;3.13;;
48791;SDS011;34587;48.816;9.420;2023-12-28T07:38:27;4.63;;;3.50;;
48791;SDS011;34587;48.816;9.420;2023-12-28T07:40:52;4.60;;;2.70;;
48791;SDS011;34587;48.816;9.420;2023-12-28T07:43:18;5.50;;;3.10;;
48791;SDS011;34587;48.816;9.420;2023-12-28T07:45:43;6.15;;;3.50;;
48791;SDS011;34587;48.816;9.420;2023-12-28T07:48:08;4.05;;;2.70;;
48791;SDS011;34587;48.816;9.420;2023-12-28T07:50:34;5.15;;;3.03;;
48791;SDS011;34587;48.816;9.420;2023-12-28T07:52:59;7.40;;;3.33;;
48791;SDS011;34587;48.816;9.420;2023-12-28T07:55:25;8.32;;;3.45;;
48791;SDS011;34587;48.816;9.420;2023-12-28T07:57:51;6.35;;;3.20;;
48791;SDS011;34587;48.816;9.420;2023-12-28T08:00:16;6.38;;;2.63;;
48791;SDS011;34587;48.816;9.420;2023-12-28T08:02:41;5.25;;;3.53;;
48791;SDS011;34587;48.816;9.420;2023-12-28T08:05:07;4.28;;;2.90;;
48791;SDS011;34587;48.816;9.420;2023-12-28T08:07:32;9.60;;;3.13;;
48791;SDS011;34587;48.816;9.420;2023-12-28T08:09:58;4.72;;;2.72;;
48791;SDS011;34587;48.816;9.420;2023-12-28T08:12:23;6.07;;;3.05;;
48791;SDS011;34587;48.816;9.420;2023-12-28T08:14:49;7.38;;;3.55;;
48791;SDS011;34587;48.816;9.420;2023-12-28T08:17:15;10.77;;;2.97;;
48791;SDS011;34587;48.816;9.420;2023-12-28T08:19:40;6.30;;;2.70;;
48791;SDS011;34587;48.816;9.420;2023-12-28T08:22:05;7.07;;;4.32;;
48791;SDS011;34587;48.816;9.420;2023-12-28T08:24:30;5.57;;;3.55;;
48791;SDS011;34587;48.816;9.420;2023-12-28T08:26:57;8.48;;;4.82;;
48791;SDS011;34587;48.816;9.420;2023-12-28T08:29:24;6.28;;;3.88;;
48791;SDS011;34587;48.816;9.420;2023-12-28T08:31:49;7.00;;;3.92;;
48791;SDS011;34587;48.816;9.420;2023-12-28T08:34:15;5.72;;;2.50;;
48791;SDS011;34587;48.816;9.420;2023-12-28T08:36:40;2.17;;;1.92;;
48791;SDS011;34587;48.816;9.420;2023-12-28T08:39:06;5.05;;;2.30;;
48791;SDS011;34587;48.816;9.420;2023-12-28T08:41:32;3.13;;;2.30;;
48791;SDS011;34587;48.816;9.420;2023-12-28T08:43:57;5.78;;;2.83;;
48791;SDS011;34587;48.816;9.420;2023-12-28T08:46:22;5.80;;;3.45;;
48791;SDS011;34587;48.816;9.420;2023-12-28T08:48:49;7.45;;;3.70;;
48791;SDS011;34587;48.816;9.420;2023-12-28T08:51:15;6.03;;;3.65;;
48791;SDS011;34587;48.816;9.420;2023-12-28T08:53:41;10.05;;;3.63;;
48791;SDS011;34587;48.816;9.420;2023-12-28T08:56:39;10.40;;;5.57;;
48791;SDS011;34587;48.816;9.420;2023-12-28T08:58:57;9.43;;;5.20;;
48791;SDS011;34587;48.816;9.420;2023-12-28T09:01:23;11.52;;;5.85;;
48791;SDS011;34587;48.816;9.420;2023-12-28T09:03:52;18.88;;;6.20;;
48791;SDS011;34587;48.816;9.420;2023-12-28T09:06:18;10.40;;;4.95;;
48791;SDS011;34587;48.816;9.420;2023-12-28T09:08:45;15.90;;;6.78;;
48791;SDS011;34587;48.816;9.420;2023-12-28T09:11:13;15.10;;;7.47;;
48791;SDS011;34587;48.816;9.420;2023-12-28T09:13:39;11.13;;;5.75;;
48791;SDS011;34587;48.816;9.420;2023-12-28T09:16:09;16.65;;;7.18;;
48791;SDS011;34587;48.816;9.420;2023-12-28T09:18:35;23.88;;;7.22;;
48791;SDS011;34587;48.816;9.420;2023-12-28T09:21:04;11.73;;;6.50;;
48791;SDS011;34587;48.816;9.420;2023-12-28T09:23:33;12.50;;;6.10;;
48791;SDS011;34587;48.816;9.420;2023-12-28T09:26:00;13.95;;;6.55;;
48791;SDS011;34587;48.816;9.420;2023-12-28T09:28:26;22.48;;;8.57;;
48791;SDS011;34587;48.816;9.420;2023-12-28T09:30:51;11.15;;;6.03;;
48791;SDS011;34587;48.816;9.420;2023-12-28T09:33:17;13.80;;;6.05;;
48791;SDS011;34587;48.816;9.420;2023-12-28T09:35:42;11.05;;;5.90;;
48791;SDS011;34587;48.816;9.420;2023-12-28T09:38:07;8.50;;;5.25;;
48791;SDS011;34587;48.816;9.420;2023-12-28T09:40:33;7.60;;;5.13;;
48791;SDS011;34587;48.816;9.420;2023-12-28T09:45:39;13.52;;;6.20;;
48791;SDS011;34587;48.816;9.420;2023-12-28T09:48:05;19.50;;;6.15;;
48791;SDS011;34587;48.816;9.420;2023-12-28T09:50:31;11.00;;;4.95;;
48791;SDS011;34587;48.816;9.420;2023-12-28T09:52:57;13.10;;;5.20;;
48791;SDS011;34587;48.816;9.420;2023-12-28T09:55:22;17.67;;;6.63;;
48791;SDS011;34587;48.816;9.420;2023-12-28T09:57:49;13.75;;;5.85;;
48791;SDS011;34587;48.816;9.420;2023-12-28T10:00:16;10.32;;;5.57;;
48791;SDS011;34587;48.816;9.420;2023-12-28T10:02:43;10.98;;;4.90;;
48791;SDS011;34587;48.816;9.420;2023-12-28T10:05:15;13.07;;;6.18;;
48791;SDS011;34587;48.816;9.420;2023-12-28T10:07:44;13.23;;;5.85;;
48791;SDS011;34587;48.816;9.420;2023-12-28T10:10:10;11.48;;;6.85;;
48791;SDS011;34587;48.816;9.420;2023-12-28T10:12:36;11.60;;;6.00;;
48791;SDS011;34587;48.816;9.420;2023-12-28T10:15:02;11.48;;;5.75;;
48791;SDS011;34587;48.816;9.420;2023-12-28T10:17:28;17.60;;;5.60;;
48791;SDS011;34587;48.816;9.420;2023-12-28T10:19:53;8.77;;;5.40;;
48791;SDS011;34587;48.816;9.420;2023-12-28T10:22:20;10.38;;;5.18;;
48791;SDS011;34587;48.816;9.420;2023-12-28T10:24:46;14.00;;;5.65;;
48791;SDS011;34587;48.816;9.420;2023-12-28T10:27:13;8.75;;;5.45;;
48791;SDS011;34587;48.816;9.420;2023-12-28T10:29:39;11.15;;;6.15;;
48791;SDS011;34587;48.816;9.420;2023-12-28T10:32:04;13.05;;;5.80;;
48791;SDS011;34587;48.816;9.420;2023-12-28T10:34:29;14.60;;;5.47;;
48791;SDS011;34587;48.816;9.420;2023-12-28T10:36:55;11.07;;;4.75;;
48791;SDS011;34587;48.816;9.420;2023-12-28T10:39:23;8.52;;;4.78;;
48791;SDS011;34587;48.816;9.420;2023-12-28T10:41:50;8.25;;;4.90;;
48791;SDS011;34587;48.816;9.420;2023-12-28T10:44:20;9.80;;;4.88;;
48791;SDS011;34587;48.816;9.420;2023-12-28T10:46:48;9.43;;;4.68;;
48791;SDS011;34587;48.816;9.420;2023-12-28T10:49:21;8.95;;;4.25;;
48791;SDS011;34587;48.816;9.420;2023-12-28T10:51:50;33.10;;;8.98;;
48791;SDS011;34587;48.816;9.420;2023-12-28T10:54:28;21.77;;;8.80;;
48791;SDS011;34587;48.816;9.420;2023-12-28T10:59:58;16.67;;;7.30;;
48791;SDS011;34587;48.816;9.420;2023-12-28T11:02:33;13.60;;;6.07;;
48791;SDS011;34587;48.816;9.420;2023-12-28T11:05:03;11.27;;;5.68;;
48791;SDS011;34587;48.816;9.420;2023-12-28T11:07:31;24.92;;;9.57;;
48791;SDS011;34587;48.816;9.420;2023-12-28T11:09:58;18.90;;;8.20;;
48791;SDS011;34587;48.816;9.420;2023-12-28T11:12:25;21.92;;;7.70;;
48791;SDS011;34587;48.816;9.420;2023-12-28T11:14:52;17.98;;;6.95;;
48791;SDS011;34587;48.816;9.420;2023-12-28T11:17:19;19.70;;;8.38;;
48791;SDS011;34587;48.816;9.420;2023-12-28T11:19:45;22.00;;;9.13;;
48791;SDS011;34587;48.816;9.420;2023-12-28T11:22:13;15.82;;;8.63;;
48791;SDS011;34587;48.816;9.420;2023-12-28T11:24:39;15.40;;;8.23;;
48791;SDS011;34587;48.816;9.420;2023-12-28T11:27:05;14.32;;;8.07;;
48791;SDS011;34587;48.816;9.420;2023-12-28T11:29:31;24.80;;;8.52;;
48791;SDS011;34587;48.816;9.420;2023-12-28T11:31:57;18.73;;;8.57;;
48791;SDS011;34587;48.816;9.420;2023-12-28T11:34:30;19.85;;;9.65;;
48791;SDS011;34587;48.816;9.420;2023-12-28T11:36:59;21.83;;;10.93;;
48791;SDS011;34587;48.816;9.420;2023-12-28T11:39:31;21.60;;;10.38;;
48791;SDS011;34587;48.816;9.420;2023-12-28T11:42:01;15.52;;;7.60;;
48791;SDS011;34587;48.816;9.420;2023-12-28T11:44:37;11.00;;;6.32;;
48791;SDS011;34587;48.816;9.420;2023-12-28T11:47:14;16.70;;;8.07;;
48791;SDS011;34587;48.816;9.420;2023-12-28T11:49:41;21.48;;;9.35;;
48791;SDS011;34587;48.816;9.420;2023-12-28T11:52:06;20.20;;;7.90;;
48791;SDS011;34587;48.816;9.420;2023-12-28T11:54:32;21.83;;;7.85;;
48791;SDS011;34587;48.816;9.420;2023-12-28T11:56:58;16.05;;;6.90;;
48791;SDS011;34587;48.816;9.420;2023-12-28T11:59:23;18.23;;;8.38;;
48791;SDS011;34587;48.816;9.420;2023-12-28T12:01:49;21.45;;;9.75;;
48791;SDS011;34587;48.816;9.420;2023-12-28T12:04:16;25.52;;;11.45;;
48791;SDS011;34587;48.816;9.420;2023-12-28T12:06:41;24.58;;;11.70;;
48791;SDS011;34587;48.816;9.420;2023-12-28T12:09:07;32.97;;;11.20;;
48791;SDS011;34587;48.816;9.420;2023-12-28T12:11:32;19.27;;;9.65;;
48791;SDS011;34587;48.816;9.420;2023-12-28T12:13:57;16.23;;;8.63;;
48791;SDS011;34587;48.816;9.420;2023-12-28T12:16:22;15.65;;;7.20;;
48791;SDS011;34587;48.816;9.420;2023-12-28T12:18:48;13.45;;;6.70;;
48791;SDS011;34587;48.816;9.420;2023-12-28T12:21:13;13.98;;;6.78;;
48791;SDS011;34587;48.816;9.420;2023-12-28T12:23:39;17.55;;;8.98;;
48791;SDS011;34587;48.816;9.420;2023-12-28T12:26:05;22.08;;;10.60;;
48791;SDS011;34587;48.816;9.420;2023-12-28T12:28:31;27.58;;;12.27;;
48791;SDS011;34587;48.816;9.420;2023-12-28T12:30:57;26.77;;;10.73;;
48791;SDS011;34587;48.816;9.420;2023-12-28T12:33:26;14.93;;;8.05;;
48791;SDS011;34587;48.816;9.420;2023-12-28T12:35:52;54.30;;;22.52;;
48791;SDS011;34587;48.816;9.420;2023-12-28T12:38:17;30.75;;;17.02;;
48791;SDS011;34587;48.816;9.420;2023-12-28T12:40:43;17.70;;;9.80;;
48791;SDS011;34587;48.816;9.420;2023-12-28T12:43:08;14.52;;;8.32;;
48791;SDS011;34587;48.816;9.420;2023-12-28T12:45:35;15.70;;;7.88;;
48791;SDS011;34587;48.816;9.420;2023-12-28T12:48:01;19.05;;;8.60;;
48791;SDS011;34587;48.816;9.420;2023-12-28T12:50:28;15.13;;;7.75;;
48791;SDS011;34587;48.816;9.420;2023-12-28T12:52:53;11.93;;;7.20;;
48791;SDS011;34587;48.816;9.420;2023-12-28T12:55:18;25.27;;;9.55;;
48791;SDS011;34587;48.816;9.420;2023-12-28T12:57:43;15.90;;;9.13;;
48791;SDS011;34587;48.816;9.420;2023-12-28T13:00:10;19.13;;;9.02;;
48791;SDS011;34587;48.816;9.420;2023-12-28T13:02:36;25.05;;;10.25;;
48791;SDS011;34587;48.816;9.420;2023-12-28T13:05:02;17.33;;;9.80;;
48791;SDS011;34587;48.816;9.420;2023-12-28T13:07:29;22.48;;;10.68;;
48791;SDS011;34587;48.816;9.420;2023-12-28T13:09:55;17.88;;;9.60;;
48791;SDS011;34587;48.816;9.420;2023-12-28T13:12:20;20.75;;;10.32;;
48791;SDS011;34587;48.816;9.420;2023-12-28T13:14:46;15.50;;;9.07;;
48791;SDS011;34587;48.816;9.420;2023-12-28T13:17:11;22.00;;;8.77;;
48791;SDS011;34587;48.816;9.420;2023-12-28T13:19:37;17.88;;;9.32;;
48791;SDS011;34587;48.816;9.420;2023-12-28T13:22:03;23.67;;;10.25;;
48791;SDS011;34587;48.816;9.420;2023-12-28T13:24:30;23.15;;;10.13;;
48791;SDS011;34587;48.816;9.420;2023-12-28T13:26:55;23.70;;;10.43;;
48791;SDS011;34587;48.816;9.420;2023-12-28T13:29:21;19.95;;;10.18;;
48791;SDS011;34587;48.816;9.420;2023-12-28T13:31:46;19.90;;;11.30;;
48791;SDS011;34587;48.816;9.420;2023-12-28T13:34:15;21.42;;;10.45;;
48791;SDS011;34587;48.816;9.420;2023-12-28T13:36:40;29.83;;;11.23;;
48791;SDS011;34587;48.816;9.420;2023-12-28T13:39:06;29.27;;;11.95;;
48791;SDS011;34587;48.816;9.420;2023-12-28T13:41:31;18.85;;;9.48;;
48791;SDS011;34587;48.816;9.420;2023-12-28T13:43:56;23.25;;;10.88;;
48791;SDS011;34587;48.816;9.420;2023-12-28T13:46:27;32.35;;;14.27;;
48791;SDS011;34587;48.816;9.420;2023-12-28T13:48:52;28.15;;;14.75;;
48791;SDS011;34587;48.816;9.420;2023-12-28T13:51:17;32.72;;;14.77;;
48791;SDS011;34587;48.816;9.420;2023-12-28T13:53:43;29.55;;;14.07;;
48791;SDS011;34587;48.816;9.420;2023-12-28T13:56:08;28.00;;;12.85;;
48791;SDS011;34587;48.816;9.420;2023-12-28T13:58:36;35.53;;;15.10;;
48791;SDS011;34587;48.816;9.420;2023-12-28T14:01:01;27.60;;;11.07;;
48791;SDS011;34587;48.816;9.420;2023-12-28T14:03:28;27.75;;;11.80;;
48791;SDS011;34587;48.816;9.420;2023-12-28T14:05:53;20.48;;;8.82;;
48791;SDS011;34587;48.816;9.420;2023-12-28T14:08:19;16.40;;;8.73;;
48791;SDS011;34587;48.816;9.420;2023-12-28T14:10:44;12.68;;;7.72;;
48791;SDS011;34587;48.816;9.420;2023-12-28T14:13:10;14.38;;;7.97;;
48791;SDS011;34587;48.816;9.420;2023-12-28T14:15:35;13.32;;;7.80;;
48791;SDS011;34587;48.816;9.420;2023-12-28T14:18:00;13.98;;;7.68;;
48791;SDS011;34587;48.816;9.420;2023-12-28T14:20:25;14.45;;;8.05;;
48791;SDS011;34587;48.816;9.420;2023-12-28T14:22:52;18.30;;;8.98;;
48791;SDS011;34587;48.816;9.420;2023-12-28T14:25:18;12.23;;;7.57;;
48791;SDS011;34587;48.816;9.420;2023-12-28T14:27:44;22.35;;;10.48;;
48791;SDS011;34587;48.816;9.420;2023-12-28T14:30:09;20.70;;;8.88;;
48791;SDS011;34587;48.816;9.420;2023-12-28T14:32:35;14.15;;;6.35;;
48791;SDS011;34587;48.816;9.420;2023-12-28T14:35:01;10.60;;;6.13;;
48791;SDS011;34587;48.816;9.420;2023-12-28T14:37:26;11.38;;;3.50;;
48791;SDS011;34587;48.816;9.420;2023-12-28T14:39:52;4.43;;;3.45;;
48791;SDS011;34587;48.816;9.420;2023-12-28T14:42:17;5.72;;;3.13;;
48791;SDS011;34587;48.816;9.420;2023-12-28T14:44:42;3.75;;;2.35;;
48791;SDS011;34587;48.816;9.420;2023-12-28T14:47:08;11.45;;;3.17;;
48791;SDS011;34587;48.816;9.420;2023-12-28T14:49:33;5.80;;;2.88;;
48791;SDS011;34587;48.816;9.420;2023-12-28T14:51:59;11.27;;;4.82;;
48791;SDS011;34587;48.816;9.420;2023-12-28T14:54:24;9.95;;;5.25;;
48791;SDS011;34587;48.816;9.420;2023-12-28T14:56:49;19.08;;;8.77;;
48791;SDS011;34587;48.816;9.420;2023-12-28T14:59:14;21.67;;;8.98;;
48791;SDS011;34587;48.816;9.420;2023-12-28T15:01:40;19.13;;;9.75;;
48791;SDS011;34587;48.816;9.420;2023-12-28T15:04:05;20.50;;;10.15;;
48791;SDS011;34587;48.816;9.420;2023-12-28T15:06:31;16.88;;;8.90;;
48791;SDS011;34587;48.816;9.420;2023-12-28T15:08:56;19.90;;;9.00;;
48791;SDS011;34587;48.816;9.420;2023-12-28T15:11:22;17.85;;;9.27;;
48791;SDS011;34587;48.816;9.420;2023-12-28T15:13:47;13.15;;;7.45;;
48791;SDS011;34587;48.816;9.420;2023-12-28T15:16:13;16.08;;;6.18;;
48791;SDS011;34587;48.816;9.420;2023-12-28T15:18:39;18.13;;;7.97;;
48791;SDS011;34587;48.816;9.420;2023-12-28T15:21:05;22.42;;;8.57;;
48791;SDS011;34587;48.816;9.420;2023-12-28T15:23:31;19.42;;;7.80;;
48791;SDS011;34587;48.816;9.420;2023-12-28T15:25:57;24.83;;;9.50;;
48791;SDS011;34587;48.816;9.420;2023-12-28T15:28:22;29.88;;;11.75;;
48791;SDS011;34587;48.816;9.420;2023-12-28T15:30:48;57.17;;;21.08;;
48791;SDS011;34587;48.816;9.420;2023-12-28T15:33:14;51.30;;;21.55;;
48791;SDS011;34587;48.816;9.420;2023-12-28T15:35:39;28.40;;;12.30;;
48791;SDS011;34587;48.816;9.420;2023-12-28T15:38:04;22.77;;;9.25;;
48791;SDS011;34587;48.816;9.420;2023-12-28T15:40:30;9.25;;;5.68;;
48791;SDS011;34587;48.816;9.420;2023-12-28T15:42:55;8.60;;;5.60;;
48791;SDS011;34587;48.816;9.420;2023-12-28T15:45:21;6.35;;;4.18;;
48791;SDS011;34587;48.816;9.420;2023-12-28T15:47:46;6.38;;;4.60;;
48791;SDS011;34587;48.816;9.420;2023-12-28T15:50:11;4.32;;;3.70;;
48791;SDS011;34587;48.816;9.420;2023-12-28T15:52:37;6.15;;;3.97;;
48791;SDS011;34587;48.816;9.420;2023-12-28T15:55:02;6.38;;;3.25;;
48791;SDS011;34587;48.816;9.420;2023-12-28T15:57:28;3.65;;;2.63;;
48791;SDS011;34587;48.816;9.420;2023-12-28T15:59:53;3.65;;;2.47;;
48791;SDS011;34587;48.816;9.420;2023-12-28T16:02:26;8.43;;;2.85;;
48791;SDS011;34587;48.816;9.420;2023-12-28T16:04:52;4.25;;;3.05;;
48791;SDS011;34587;48.816;9.420;2023-12-28T16:07:18;3.83;;;2.58;;
48791;SDS011;34587;48.816;9.420;2023-12-28T16:09:43;7.47;;;3.20;;
48791;SDS011;34587;48.816;9.420;2023-12-28T16:12:08;5.45;;;3.70;;
48791;SDS011;34587;48.816;9.420;2023-12-28T16:14:35;17.08;;;6.78;;
48791;SDS011;34587;48.816;9.420;2023-12-28T16:17:01;7.28;;;4.20;;
48791;SDS011;34587;48.816;9.420;2023-12-28T16:19:27;4.85;;;2.72;;
48791;SDS011;34587;48.816;9.420;2023-12-28T16:21:53;2.58;;;2.35;;
48791;SDS011;34587;48.816;9.420;2023-12-28T16:24:18;3.15;;;2.35;;
48791;SDS011;34587;48.816;9.420;2023-12-28T16:26:43;5.10;;;2.15;;
48791;SDS011;34587;48.816;9.420;2023-12-28T16:29:09;2.45;;;1.75;;
48791;SDS011;34587;48.816;9.420;2023-12-28T16:31:34;2.60;;;1.73;;
48791;SDS011;34587;48.816;9.420;2023-12-28T16:34:00;3.03;;;1.60;;
48791;SDS011;34587;48.816;9.420;2023-12-28T16:36:25;4.20;;;3.08;;
48791;SDS011;34587;48.816;9.420;2023-12-28T16:38:50;1.88;;;1.40;;
48791;SDS011;34587;48.816;9.420;2023-12-28T16:41:16;2.17;;;1.40;;
48791;SDS011;34587;48.816;9.420;2023-12-28T16:43:42;4.18;;;1.85;;
48791;SDS011;34587;48.816;9.420;2023-12-28T16:46:07;2.60;;;2.25;;
48791;SDS011;34587;48.816;9.420;2023-12-28T16:48:32;3.38;;;1.73;;
48791;SDS011;34587;48.816;9.420;2023-12-28T16:50:58;2.15;;;1.60;;
48791;SDS011;34587;48.816;9.420;2023-12-28T16:53:26;5.13;;;2.08;;
48791;SDS011;34587;48.816;9.420;2023-12-28T16:55:52;7.07;;;2.22;;
48791;SDS011;34587;48.816;9.420;2023-12-28T16:58:17;1.98;;;1.65;;
48791;SDS011;34587;48.816;9.420;2023-12-28T17:00:43;6.07;;;2.20;;
48791;SDS011;34587;48.816;9.420;2023-12-28T17:03:08;7.13;;;1.95;;
48791;SDS011;34587;48.816;9.420;2023-12-28T17:05:33;2.42;;;1.60;;
48791;SDS011;34587;48.816;9.420;2023-12-28T17:07:59;3.97;;;2.05;;
48791;SDS011;34587;48.816;9.420;2023-12-28T17:10:24;2.72;;;2.03;;
48791;SDS011;34587;48.816;9.420;2023-12-28T17:12:50;2.60;;;1.88;;
48791;SDS011;34587;48.816;9.420;2023-12-28T17:15:17;1.27;;;1.23;;
48791;SDS011;34587;48.816;9.420;2023-12-28T17:17:43;2.13;;;1.70;;
48791;SDS011;34587;48.816;9.420;2023-12-28T17:20:10;4.63;;;1.80;;
48791;SDS011;34587;48.816;9.420;2023-12-28T17:22:41;1.95;;;1.77;;
48791;SDS011;34587;48.816;9.420;2023-12-28T17:25:17;3.47;;;1.80;;
48791;SDS011;34587;48.816;9.420;2023-12-28T17:27:52;4.82;;;2.08;;
48791;SDS011;34587;48.816;9.420;2023-12-28T17:30:19;2.58;;;2.00;;
48791;SDS011;34587;48.816;9.420;2023-12-28T17:32:54;3.08;;;2.08;;
48791;SDS011;34587;48.816;9.420;2023-12-28T17:35:23;5.65;;;2.70;;
48791;SDS011;34587;48.816;9.420;2023-12-28T17:37:49;6.80;;;1.88;;
48791;SDS011;34587;48.816;9.420;2023-12-28T17:40:15;9.38;;;4.57;;
48791;SDS011;34587;48.816;9.420;2023-12-28T17:42:41;6.95;;;4.20;;
48791;SDS011;34587;48.816;9.420;2023-12-28T17:45:11;7.40;;;2.90;;
48791;SDS011;34587;48.816;9.420;2023-12-28T17:47:42;6.60;;;3.90;;
48791;SDS011;34587;48.816;9.420;2023-12-28T17:50:10;5.93;;;2.92;;
48791;SDS011;34587;48.816;9.420;2023-12-28T17:52:36;3.55;;;2.75;;
48791;SDS011;34587;48.816;9.420;2023-12-28T17:55:01;6.18;;;2.40;;
48791;SDS011;34587;48.816;9.420;2023-12-28T17:57:27;4.38;;;2.40;;
48791;SDS011;34587;48.816;9.420;2023-12-28T17:59:53;4.53;;;1.98;;
48791;SDS011;34587;48.816;9.420;2023-12-28T18:02:18;3.75;;;2.10;;
48791;SDS011;34587;48.816;9.420;2023-12-28T18:04:44;5.40;;;2.40;;
48791;SDS011;34587;48.816;9.420;2023-12-28T18:07:09;2.35;;;2.15;;
48791;SDS011;34587;48.816;9.420;2023-12-28T18:09:35;10.38;;;4.93;;
48791;SDS011;34587;48.816;9.420;2023-12-28T18:12:05;3.20;;;2.30;;
48791;SDS011;34587;48.816;9.420;2023-12-28T18:14:35;4.88;;;2.70;;
48791;SDS011;34587;48.816;9.420;2023-12-28T18:17:01;3.30;;;2.35;;
48791;SDS011;34587;48.816;9.420;2023-12-28T18:19:26;3.47;;;2.15;;
48791;SDS011;34587;48.816;9.420;2023-12-28T18:21:52;5.55;;;2.80;;
48791;SDS011;34587;48.816;9.420;2023-12-28T18:24:17;3.80;;;2.85;;
48791;SDS011;34587;48.816;9.420;2023-12-28T18:26:42;5.80;;;2.88;;
48791;SDS011;34587;48.816;9.420;2023-12-28T18:29:10;5.85;;;3.35;;
48791;SDS011;34587;48.816;9.420;2023-12-28T18:31:36;10.50;;;2.42;;
48791;SDS011;34587;48.816;9.420;2023-12-28T18:34:01;3.72;;;1.80;;
48791;SDS011;34587;48.816;9.420;2023-12-28T18:36:26;5.30;;;2.45;;
48791;SDS011;34587;48.816;9.420;2023-12-28T18:38:52;2.97;;;2.33;;
48791;SDS011;34587;48.816;9.420;2023-12-28T18:41:17;2.63;;;2.08;;
48791;SDS011;34587;48.816;9.420;2023-12-28T18:43:42;5.85;;;2.50;;
48791;SDS011;34587;48.816;9.420;2023-12-28T18:46:08;4.53;;;2.83;;
48791;SDS011;34587;48.816;9.420;2023-12-28T18:48:33;7.03;;;2.45;;
48791;SDS011;34587;48.816;9.420;2023-12-28T18:50:58;6.75;;;2.80;;
48791;SDS011;34587;48.816;9.420;2023-12-28T18:53:23;3.13;;;2.35;;
48791;SDS011;34587;48.816;9.420;2023-12-28T18:55:49;10.55;;;5.45;;